Terminal Aerodrome Forecast
Issued by NWS Atlanta, GA

Current Version | Previous Version | Text Only | Print | Product List | Glossary On
Versions: 1 2 3 4 5 6 7 8 9 10 11 12 13 14 15 16 17 18 19 20 21 22 23 24 25 26 27 28 29 30 31 32 33 34 35 36 37 38 39
957
FTUS42 KFFC 250339 AAB
TAFATL
TAF AMD
KATL 250339Z 2504/2606 22003KT P6SM FEW120 FEW250
     FM251500 26004KT P6SM SCT035
     FM251800 24006KT P6SM VCSH SCT050 PROB30 2519/2522 6SM -TSRA
      BKN040CB
     FM260200 24003KT P6SM FEW080=

USA.gov is the U.S. government's official web portal to all federal, state and local government web resources and services.